createdAt,value
2023-05-11T00:00:03.378Z,-146.07
2023-05-11T00:02:32.850Z,-146.07
2023-05-11T00:05:00.299Z,-146.07
2023-05-11T00:07:27.696Z,-146.07
2023-05-11T00:09:55.106Z,-146.07
2023-05-11T00:12:22.484Z,-146.07
2023-05-11T00:14:49.821Z,-146.07
2023-05-11T00:17:18.891Z,-146.07
2023-05-11T00:19:46.446Z,-146.07
2023-05-11T00:22:13.889Z,-146.07
2023-05-11T00:24:41.303Z,-146.07
2023-05-11T00:27:08.694Z,-146.07
2023-05-11T00:29:36.144Z,-146.07
2023-05-11T00:32:03.504Z,-146.07
2023-05-11T00:34:31.999Z,-146.07
2023-05-11T00:36:59.361Z,-146.07
2023-05-11T00:39:27.820Z,-146.07
2023-05-11T00:41:55.221Z,-146.07
2023-05-11T00:44:22.714Z,-146.07
2023-05-11T00:46:50.195Z,-146.07
2023-05-11T00:49:21.372Z,-146.07
2023-05-11T00:51:48.774Z,-146.07
2023-05-11T00:54:16.798Z,-146.07
2023-05-11T00:56:44.170Z,-146.07
2023-05-11T00:59:11.775Z,-146.07
2023-05-11T01:01:39.506Z,-146.07
2023-05-11T01:04:07.361Z,-146.07
2023-05-11T01:06:54.922Z,-146.07
2023-05-11T01:09:51.198Z,-146.07
2023-05-11T01:12:28.292Z,-146.07
2023-05-11T01:15:21.452Z,-146.07
2023-05-11T01:18:06.924Z,-146.07
2023-05-11T01:20:35.292Z,-146.07
2023-05-11T01:23:27.414Z,-146.07
2023-05-11T01:26:28.642Z,-146.07
2023-05-11T01:29:30.012Z,-146.07
2023-05-11T01:31:57.963Z,-146.07
2023-05-11T01:34:29.481Z,-146.07
2023-05-11T01:36:59.739Z,-146.07
2023-05-11T01:39:37.742Z,-146.07
2023-05-11T01:42:11.033Z,-146.07
2023-05-11T01:44:43.126Z,-146.07
2023-05-11T01:47:11.583Z,-146.07
2023-05-11T01:49:40.830Z,-146.07
2023-05-11T01:52:09.856Z,-146.07
2023-05-11T01:54:38.529Z,-146.07
2023-05-11T01:57:06.260Z,-146.07
2023-05-11T01:59:33.694Z,-146.07
2023-05-11T02:02:01.683Z,-146.07
2023-05-11T02:04:30.142Z,-146.07
2023-05-11T02:06:59.933Z,-146.07
2023-05-11T02:09:27.681Z,-146.07
2023-05-11T02:11:56.408Z,-146.07
2023-05-11T02:14:24.792Z,-146.07
2023-05-11T02:16:52.679Z,-146.07
2023-05-11T02:19:21.881Z,-146.07
2023-05-11T02:21:49.878Z,-146.07
2023-05-11T02:24:18.206Z,-146.07
2023-05-11T02:26:46.175Z,-146.07
2023-05-11T02:29:13.615Z,-146.07
2023-05-11T02:31:46.613Z,-146.07
2023-05-11T02:34:41.403Z,-146.07
2023-05-11T02:37:13.484Z,-146.07
2023-05-11T02:39:44.364Z,-146.07
2023-05-11T02:42:16.103Z,-146.07
2023-05-11T02:45:05.459Z,-146.07
2023-05-11T02:47:38.254Z,-146.07
2023-05-11T02:50:07.029Z,-146.07
2023-05-11T02:52:42.380Z,-146.07
2023-05-11T02:55:10.778Z,-146.07
2023-05-11T02:57:39.141Z,-146.07
2023-05-11T03:00:08.891Z,-146.07
2023-05-11T03:02:36.633Z,-146.07
2023-05-11T03:05:04.747Z,-146.07
2023-05-11T03:07:33.203Z,-146.07
2023-05-11T03:10:01.375Z,-146.07
2023-05-11T03:12:34.016Z,-146.07
2023-05-11T03:15:03.930Z,-146.07
2023-05-11T03:17:33.225Z,-146.07
2023-05-11T03:20:03.732Z,-146.07
2023-05-11T03:22:31.732Z,-146.07
2023-05-11T03:24:59.391Z,-146.07
2023-05-11T03:27:27.427Z,-146.07
2023-05-11T03:29:57.211Z,-146.07
2023-05-11T03:32:24.917Z,-146.07
2023-05-11T03:34:52.988Z,-146.07
2023-05-11T03:37:21.262Z,-146.07
2023-05-11T03:39:52.572Z,-146.07
2023-05-11T03:42:21.630Z,-146.07
2023-05-11T03:44:50.657Z,-146.07
2023-05-11T03:47:18.460Z,-146.07
2023-05-11T03:49:46.279Z,-146.07
2023-05-11T03:52:13.836Z,-146.07
2023-05-11T03:54:42.742Z,-146.07
2023-05-11T03:57:11.787Z,-146.07
2023-05-11T03:59:42.791Z,-146.07
2023-05-11T04:02:10.220Z,-146.07
2023-05-11T04:04:37.731Z,-146.07
2023-05-11T04:07:05.167Z,-146.07
2023-05-11T04:09:32.628Z,-146.07
2023-05-11T04:11:59.997Z,-146.07
2023-05-11T04:14:28.828Z,-146.07
2023-05-11T04:16:56.267Z,-146.07
2023-05-11T04:19:23.613Z,-146.07
2023-05-11T04:21:51.002Z,-146.07
2023-05-11T04:24:18.386Z,-146.07
2023-05-11T04:26:46.322Z,-146.07
2023-05-11T04:29:13.803Z,-146.07
2023-05-11T04:31:41.130Z,-146.07
2023-05-11T04:34:08.601Z,-146.07
2023-05-11T04:36:37.406Z,-146.07
2023-05-11T04:39:06.332Z,-146.07
2023-05-11T04:41:34.945Z,-146.07
2023-05-11T04:44:03.282Z,-146.07
2023-05-11T04:46:30.797Z,-146.07
2023-05-11T04:48:59.613Z,-146.07
2023-05-11T04:51:27.819Z,-146.07
2023-05-11T04:53:55.335Z,-146.07
2023-05-11T04:56:22.974Z,-146.07
2023-05-11T04:58:51.064Z,-146.07
2023-05-11T05:01:18.372Z,-146.07
2023-05-11T05:03:49.749Z,-146.07
2023-05-11T05:06:18.019Z,-146.07
2023-05-11T05:08:45.404Z,-146.07
2023-05-11T05:11:12.821Z,-146.07
2023-05-11T05:13:40.365Z,-146.07
2023-05-11T05:16:07.756Z,-146.07
2023-05-11T05:18:35.108Z,-146.07
2023-05-11T05:21:02.619Z,-146.07
2023-05-11T05:23:30.125Z,-146.07
2023-05-11T05:25:57.438Z,-146.07
2023-05-11T05:28:24.899Z,-146.07
2023-05-11T05:30:52.280Z,-146.07
2023-05-11T05:33:20.337Z,-146.07
2023-05-11T05:35:47.790Z,-146.07
2023-05-11T05:38:16.511Z,-146.07
2023-05-11T05:40:43.900Z,-146.07
2023-05-11T05:43:11.388Z,-146.07
2023-05-11T05:45:38.825Z,-146.07
2023-05-11T05:48:06.960Z,-146.07
2023-05-11T05:50:35.003Z,-146.07
2023-05-11T05:53:02.728Z,-146.07
2023-05-11T05:55:31.415Z,-146.07
2023-05-11T05:58:01.726Z,-146.07
2023-05-11T06:00:29.140Z,-146.07
2023-05-11T06:03:03.851Z,-146.07
2023-05-11T06:05:31.331Z,-146.07
2023-05-11T06:08:09.678Z,-146.07
2023-05-11T06:10:38.729Z,-146.07
2023-05-11T06:13:07.581Z,-146.07
2023-05-11T06:15:35.150Z,-146.07
2023-05-11T06:18:09.672Z,-146.07
2023-05-11T06:20:37.163Z,-146.07
2023-05-11T06:23:06.497Z,-146.07
2023-05-11T06:25:37.462Z,-146.07
2023-05-11T06:28:06.036Z,-146.07
2023-05-11T06:30:35.332Z,-146.07
2023-05-11T06:33:03.238Z,-146.07
2023-05-11T06:35:30.691Z,-146.07
2023-05-11T06:37:59.309Z,-146.07
2023-05-11T06:40:26.734Z,-146.07
2023-05-11T06:42:54.101Z,-146.07
2023-05-11T06:45:21.689Z,-146.07
2023-05-11T06:47:49.156Z,-146.07
2023-05-11T06:50:16.836Z,-146.07
2023-05-11T06:52:44.877Z,-146.07
2023-05-11T06:55:16.721Z,-146.07
2023-05-11T06:57:44.079Z,-146.07
2023-05-11T07:00:11.800Z,-146.07
2023-05-11T07:02:39.638Z,-146.07
2023-05-11T07:05:07.361Z,-146.07
2023-05-11T07:07:34.726Z,-146.07
2023-05-11T07:10:02.071Z,-146.07
2023-05-11T07:13:39.574Z,12.35
2023-05-11T07:16:07.095Z,12.36
2023-05-11T07:18:34.497Z,12.36
2023-05-11T07:21:01.963Z,12.41
2023-05-11T07:23:29.512Z,12.31
2023-05-11T07:25:58.143Z,12.22
2023-05-11T07:28:25.509Z,12.34
2023-05-11T07:30:52.919Z,12.41
2023-05-11T07:33:20.225Z,12.36
2023-05-11T07:35:47.537Z,12.39
2023-05-11T07:38:14.977Z,12.49
2023-05-11T07:40:42.421Z,12.62
2023-05-11T07:43:09.931Z,12.70
2023-05-11T07:45:37.343Z,12.70
2023-05-11T07:48:04.708Z,12.86
2023-05-11T07:50:32.241Z,12.91
2023-05-11T07:52:59.665Z,12.84
2023-05-11T07:55:27.054Z,12.94
2023-05-11T07:57:54.676Z,12.83
2023-05-11T08:00:22.213Z,12.76
2023-05-11T08:02:49.649Z,12.75
2023-05-11T08:05:18.445Z,12.74
2023-05-11T08:07:46.671Z,12.83
2023-05-11T08:10:14.110Z,12.93
2023-05-11T08:12:41.558Z,12.93
2023-05-11T08:15:09.664Z,12.88
2023-05-11T08:17:37.354Z,12.81
2023-05-11T08:20:06.520Z,12.79
2023-05-11T08:22:34.278Z,12.89
2023-05-11T08:25:01.665Z,12.94
2023-05-11T08:27:29.021Z,13.06
2023-05-11T08:29:56.439Z,12.89
2023-05-11T08:32:23.957Z,12.95
2023-05-11T08:34:51.483Z,12.88
2023-05-11T08:37:19.538Z,13.04
2023-05-11T08:39:48.027Z,13.14
2023-05-11T08:42:17.133Z,13.28
2023-05-11T08:44:45.157Z,13.38
2023-05-11T08:49:43.576Z,13.42
2023-05-11T08:52:11.529Z,13.46
2023-05-11T08:54:39.270Z,13.52
2023-05-11T08:57:07.585Z,13.71
2023-05-11T08:59:35.161Z,13.66
2023-05-11T09:02:03.104Z,13.78
2023-05-11T09:04:31.129Z,13.87
2023-05-11T09:06:59.120Z,13.97
2023-05-11T09:09:26.774Z,14.16
2023-05-11T09:11:55.167Z,14.46
2023-05-11T09:14:27.119Z,14.51
2023-05-11T09:16:54.985Z,14.66
2023-05-11T09:19:22.454Z,14.35
2023-05-11T09:21:52.101Z,14.40
2023-05-11T09:24:21.024Z,14.52
2023-05-11T09:26:48.625Z,14.62
2023-05-11T09:29:21.238Z,14.66
2023-05-11T09:31:48.769Z,14.42
2023-05-11T09:34:21.474Z,14.48
2023-05-11T09:36:50.502Z,14.44
2023-05-11T09:39:35.106Z,14.57
2023-05-11T09:42:18.228Z,14.72
2023-05-11T09:44:47.228Z,14.83
2023-05-11T09:47:19.414Z,15.12
2023-05-11T09:49:47.878Z,15.16
2023-05-11T09:52:17.511Z,15.13
2023-05-11T09:54:52.382Z,15.13
2023-05-11T09:57:27.514Z,15.27
2023-05-11T09:59:56.484Z,15.30
2023-05-11T10:02:31.964Z,15.14
2023-05-11T10:05:00.841Z,14.91
2023-05-11T10:07:29.737Z,14.98
2023-05-11T10:10:02.068Z,14.99
2023-05-11T10:12:31.165Z,14.79
2023-05-11T10:15:03.900Z,14.67
2023-05-11T10:17:31.526Z,14.76
2023-05-11T10:20:00.324Z,14.76
2023-05-11T10:22:29.367Z,14.76
2023-05-11T10:25:00.504Z,14.67
2023-05-11T10:27:28.687Z,14.58
2023-05-11T10:29:56.942Z,14.54
2023-05-11T10:32:24.305Z,14.72
2023-05-11T10:34:51.861Z,15.05
2023-05-11T10:37:21.230Z,14.89
2023-05-11T10:39:50.704Z,14.76
2023-05-11T10:42:43.060Z,14.79
2023-05-11T10:45:10.524Z,14.89
2023-05-11T10:48:02.952Z,14.67
2023-05-11T10:51:05.548Z,14.66
2023-05-11T10:53:51.676Z,14.67
2023-05-11T10:56:45.068Z,14.75
2023-05-11T10:59:41.724Z,14.63
2023-05-11T11:02:09.254Z,14.70
2023-05-11T11:04:50.131Z,14.59
2023-05-11T11:07:21.608Z,14.78
2023-05-11T11:10:05.068Z,14.81
2023-05-11T11:12:35.013Z,14.75
2023-05-11T11:15:05.448Z,14.35
2023-05-11T11:17:36.523Z,14.37
2023-05-11T11:20:08.468Z,14.14
2023-05-11T11:22:38.922Z,14.09
2023-05-11T11:25:10.862Z,14.28
2023-05-11T11:27:41.284Z,14.29
2023-05-11T11:30:30.673Z,14.59
2023-05-11T11:33:07.478Z,14.48
2023-05-11T11:35:44.058Z,14.68
2023-05-11T11:38:13.267Z,14.86
2023-05-11T11:40:52.858Z,15.06
2023-05-11T11:43:22.872Z,15.04
2023-05-11T11:45:56.859Z,15.15
2023-05-11T11:48:44.613Z,15.14
2023-05-11T11:51:13.782Z,15.43
2023-05-11T11:53:41.338Z,15.67
2023-05-11T11:56:14.447Z,15.70
2023-05-11T11:58:41.883Z,15.82
2023-05-11T12:01:20.626Z,15.86
2023-05-11T12:04:07.458Z,16.00
2023-05-11T12:06:40.024Z,16.07
2023-05-11T12:09:08.100Z,16.06
2023-05-11T12:11:35.749Z,16.29
2023-05-11T12:14:03.450Z,16.21
2023-05-11T12:16:32.264Z,16.15
2023-05-11T12:19:02.178Z,16.41
2023-05-11T12:21:34.142Z,16.35
2023-05-11T12:24:04.365Z,16.59
2023-05-11T12:26:33.259Z,16.83
2023-05-11T12:29:07.925Z,17.16
2023-05-11T12:31:43.320Z,17.25
2023-05-11T12:34:22.715Z,16.61
2023-05-11T12:36:52.999Z,16.61
2023-05-11T12:39:23.952Z,16.76
2023-05-11T12:41:53.496Z,16.85
2023-05-11T12:44:22.817Z,17.34
2023-05-11T12:46:51.736Z,17.46
2023-05-11T12:49:25.866Z,17.73
2023-05-11T12:52:10.284Z,17.81
2023-05-11T12:54:39.223Z,18.15
2023-05-11T12:57:08.337Z,17.79
2023-05-11T12:59:39.043Z,17.27
2023-05-11T13:02:21.780Z,17.06
2023-05-11T13:04:49.562Z,16.80
2023-05-11T13:07:25.979Z,17.02
2023-05-11T13:09:58.099Z,17.46
2023-05-11T13:12:25.908Z,17.74
2023-05-11T13:15:13.242Z,18.06
2023-05-11T13:17:41.885Z,18.37
2023-05-11T13:20:24.532Z,18.21
2023-05-11T13:22:52.377Z,18.16
2023-05-11T13:25:21.686Z,18.57
2023-05-11T13:27:49.284Z,18.47
2023-05-11T13:30:19.564Z,18.50
2023-05-11T13:32:46.903Z,18.42
2023-05-11T13:35:15.444Z,18.31
2023-05-11T13:37:42.944Z,18.70
2023-05-11T13:40:11.000Z,18.86
2023-05-11T13:42:38.413Z,18.81
2023-05-11T13:45:06.421Z,19.31
2023-05-11T13:47:34.536Z,19.49
2023-05-11T13:50:01.961Z,19.42
2023-05-11T13:52:29.348Z,19.82
2023-05-11T13:54:56.984Z,20.17
2023-05-11T13:57:24.506Z,19.50
2023-05-11T13:59:53.041Z,18.92
2023-05-11T14:02:20.803Z,18.73
2023-05-11T14:04:48.762Z,18.78
2023-05-11T14:07:17.056Z,18.50
2023-05-11T14:09:44.860Z,18.40
2023-05-11T14:12:12.534Z,18.60
2023-05-11T14:14:40.477Z,18.60
2023-05-11T14:17:08.361Z,18.18
2023-05-11T14:19:36.284Z,18.25
2023-05-11T14:22:04.497Z,17.92
2023-05-11T14:24:32.393Z,17.77
2023-05-11T14:27:00.388Z,17.40
2023-05-11T14:29:28.216Z,17.23
2023-05-11T14:31:56.590Z,17.04
2023-05-11T14:34:24.617Z,17.23
2023-05-11T14:36:52.625Z,17.39
2023-05-11T14:39:20.532Z,16.29
2023-05-11T14:41:48.444Z,15.70
2023-05-11T14:44:16.322Z,16.04
2023-05-11T14:46:44.650Z,15.90
2023-05-11T14:49:12.678Z,16.00
2023-05-11T14:51:40.478Z,16.20
2023-05-11T14:54:08.273Z,16.23
2023-05-11T14:56:36.847Z,16.01
2023-05-11T14:59:05.140Z,15.52
2023-05-11T15:01:33.056Z,15.39
2023-05-11T15:04:00.982Z,15.63
2023-05-11T15:06:28.913Z,15.81
2023-05-11T15:08:56.678Z,15.66
2023-05-11T15:11:25.329Z,15.87
2023-05-11T15:13:53.381Z,15.92
2023-05-11T15:16:21.247Z,16.18
2023-05-11T15:18:49.324Z,15.93
2023-05-11T15:21:17.353Z,16.03
2023-05-11T15:23:44.774Z,16.16
2023-05-11T15:26:14.350Z,16.33
2023-05-11T15:28:41.735Z,16.18
2023-05-11T15:31:09.050Z,16.13
2023-05-11T15:33:36.504Z,16.30
2023-05-11T15:36:04.081Z,16.23
2023-05-11T15:38:31.397Z,16.29
2023-05-11T15:40:58.827Z,16.25
2023-05-11T15:43:26.156Z,16.01
2023-05-11T15:45:54.366Z,15.82
2023-05-11T15:48:22.134Z,15.74
2023-05-11T15:50:49.536Z,15.85
2023-05-11T15:53:16.944Z,15.77
2023-05-11T15:55:50.733Z,15.56
2023-05-11T15:58:18.705Z,15.24
2023-05-11T16:00:46.116Z,14.62
2023-05-11T16:03:13.952Z,14.88
2023-05-11T16:05:41.416Z,15.10
2023-05-11T16:08:08.767Z,15.23
2023-05-11T16:10:36.311Z,15.43
2023-05-11T16:13:03.710Z,14.78
2023-05-11T16:15:32.138Z,14.44
2023-05-11T16:18:01.072Z,14.65
2023-05-11T16:20:30.753Z,14.29
2023-05-11T16:22:58.179Z,13.52
2023-05-11T16:25:25.581Z,13.12
2023-05-11T16:27:52.947Z,13.14
2023-05-11T16:30:24.410Z,13.33
2023-05-11T16:32:53.009Z,13.54
2023-05-11T16:35:20.902Z,13.70
2023-05-11T16:37:48.467Z,13.90
2023-05-11T16:40:18.999Z,14.04
2023-05-11T16:42:47.441Z,13.87
2023-05-11T16:45:16.361Z,13.44
2023-05-11T16:47:45.529Z,13.16
2023-05-11T16:50:18.184Z,12.87
2023-05-11T16:52:45.918Z,12.70
2023-05-11T16:55:15.916Z,12.56
2023-05-11T16:57:44.466Z,12.51
2023-05-11T17:00:12.840Z,12.45
2023-05-11T17:02:40.836Z,12.45
2023-05-11T17:05:08.851Z,12.47
2023-05-11T17:07:36.217Z,12.53
2023-05-11T17:10:03.901Z,12.55
2023-05-11T17:12:31.996Z,12.40
2023-05-11T17:14:59.961Z,12.38
2023-05-11T17:17:27.458Z,12.39
2023-05-11T17:19:54.931Z,12.43
2023-05-11T17:22:22.393Z,12.46
2023-05-11T17:24:49.729Z,12.42
2023-05-11T17:27:17.076Z,12.23
2023-05-11T17:29:44.438Z,12.30
2023-05-11T17:32:12.060Z,12.27
2023-05-11T17:34:39.521Z,12.13
2023-05-11T17:37:07.475Z,12.02
2023-05-11T17:39:35.829Z,11.96
2023-05-11T17:42:03.551Z,11.91
2023-05-11T17:44:30.934Z,11.77
2023-05-11T17:46:58.273Z,11.79
2023-05-11T17:49:26.361Z,11.68
2023-05-11T17:51:53.841Z,11.60
2023-05-11T17:54:21.163Z,11.52
2023-05-11T17:56:48.961Z,11.47
2023-05-11T17:59:17.231Z,11.46
2023-05-11T18:01:45.500Z,11.45
2023-05-11T18:04:12.859Z,11.41
2023-05-11T18:06:40.200Z,11.37
2023-05-11T18:09:09.132Z,11.33
2023-05-11T18:11:36.644Z,11.37
2023-05-11T18:14:03.983Z,11.29
2023-05-11T18:16:31.536Z,11.27
2023-05-11T18:18:59.917Z,11.25
2023-05-11T18:21:27.647Z,11.25
2023-05-11T18:23:55.284Z,11.21
2023-05-11T18:26:22.843Z,11.17
2023-05-11T18:28:50.182Z,11.18
2023-05-11T18:31:19.079Z,11.18
2023-05-11T18:33:46.688Z,11.20
2023-05-11T18:36:15.008Z,11.16
2023-05-11T18:38:43.419Z,11.17
2023-05-11T18:41:10.834Z,11.24
2023-05-11T18:43:38.298Z,11.21
2023-05-11T18:46:09.050Z,11.19
2023-05-11T18:48:36.873Z,11.23
2023-05-11T18:51:04.354Z,11.22
2023-05-11T18:53:32.017Z,11.24
2023-05-11T18:55:59.418Z,11.28
2023-05-11T18:58:27.008Z,11.23
2023-05-11T19:00:54.392Z,11.19
2023-05-11T19:03:22.170Z,11.14
2023-05-11T19:05:50.528Z,11.18
2023-05-11T19:08:18.552Z,11.11
2023-05-11T19:10:47.913Z,11.31
2023-05-11T19:13:15.295Z,11.23
2023-05-11T19:15:42.654Z,11.21
2023-05-11T19:18:10.041Z,11.33
2023-05-11T19:20:39.161Z,11.22
2023-05-11T19:23:06.784Z,11.17
2023-05-11T19:25:34.230Z,11.04
2023-05-11T19:28:01.664Z,10.99
2023-05-11T19:30:29.013Z,10.97
2023-05-11T19:32:56.398Z,10.93
2023-05-11T19:35:23.902Z,10.95
2023-05-11T19:37:51.243Z,10.95
2023-05-11T19:40:44.591Z,10.95
2023-05-11T19:43:08.278Z,10.95
2023-05-11T19:45:37.438Z,10.91
2023-05-11T19:48:05.147Z,10.91
2023-05-11T19:50:32.759Z,10.92
2023-05-11T19:53:00.341Z,10.94
2023-05-11T19:55:27.715Z,10.96
2023-05-11T19:57:55.035Z,10.95
2023-05-11T20:00:25.214Z,10.92
2023-05-11T20:02:53.224Z,10.90
2023-05-11T20:05:20.764Z,10.87
2023-05-11T20:07:48.096Z,10.91
2023-05-11T20:10:15.481Z,10.82
2023-05-11T20:12:42.871Z,10.76
2023-05-11T20:15:10.919Z,10.76
2023-05-11T20:17:39.390Z,10.73
2023-05-11T20:20:08.567Z,10.71
2023-05-11T20:22:36.747Z,10.65
2023-05-11T20:25:14.114Z,10.64
2023-05-11T20:27:45.162Z,10.61
2023-05-11T20:30:12.935Z,10.62
2023-05-11T20:35:28.162Z,10.54
2023-05-11T20:37:55.676Z,10.61
2023-05-11T20:40:25.340Z,10.51
2023-05-11T20:42:52.713Z,10.39
2023-05-11T20:45:20.187Z,10.43
2023-05-11T20:47:47.542Z,10.55
2023-05-11T20:50:15.633Z,10.48
2023-05-11T20:52:42.912Z,10.31
2023-05-11T20:55:10.278Z,10.22
2023-05-11T20:57:37.623Z,10.18
2023-05-11T21:00:07.633Z,10.32
2023-05-11T21:02:35.383Z,10.41
2023-05-11T21:05:03.867Z,10.35
2023-05-11T21:07:31.263Z,10.27
2023-05-11T21:09:58.695Z,10.22
2023-05-11T21:12:26.186Z,10.22
2023-05-11T21:14:54.981Z,10.19
2023-05-11T21:17:24.177Z,10.28
2023-05-11T21:19:51.777Z,10.23
2023-05-11T21:22:19.198Z,10.31
2023-05-11T21:24:46.506Z,10.20
2023-05-11T21:27:14.101Z,10.14
2023-05-11T21:29:42.188Z,10.14
2023-05-11T21:32:10.234Z,10.07
2023-05-11T21:34:38.391Z,10.08
2023-05-11T21:37:05.795Z,10.08
2023-05-11T21:39:33.175Z,10.09
2023-05-11T21:42:01.625Z,10.07
2023-05-11T21:44:29.266Z,10.01
2023-05-11T21:46:57.010Z,9.97
2023-05-11T21:49:24.400Z,9.95
2023-05-11T21:51:52.281Z,9.95
2023-05-11T21:54:22.592Z,9.92
2023-05-11T21:56:52.045Z,9.91
2023-05-11T21:59:19.973Z,9.94
2023-05-11T22:01:49.137Z,9.88
2023-05-11T22:04:16.780Z,9.85
2023-05-11T22:06:44.159Z,9.85
2023-05-11T22:09:12.667Z,9.81
2023-05-11T22:11:40.331Z,9.81
2023-05-11T22:14:07.879Z,9.77
2023-05-11T22:16:35.309Z,9.71
2023-05-11T22:19:02.793Z,9.73
2023-05-11T22:21:30.203Z,9.73
2023-05-11T22:23:57.857Z,9.78
2023-05-11T22:26:26.313Z,9.84
2023-05-11T22:28:53.915Z,9.93
2023-05-11T22:31:21.388Z,9.88
2023-05-11T22:33:48.779Z,9.88
2023-05-11T22:36:16.162Z,9.81
2023-05-11T22:38:43.542Z,9.93
2023-05-11T22:41:10.923Z,9.94
2023-05-11T22:43:38.465Z,10.03
2023-05-11T22:46:05.970Z,10.11
2023-05-11T22:48:33.484Z,10.12
2023-05-11T22:51:00.897Z,10.03
2023-05-11T22:53:29.643Z,10.01
2023-05-11T22:55:56.974Z,10.06
2023-05-11T22:58:25.186Z,10.04
2023-05-11T23:00:55.781Z,9.97
2023-05-11T23:03:23.307Z,9.92
2023-05-11T23:05:50.686Z,10.06
2023-05-11T23:08:18.014Z,10.12
2023-05-11T23:10:45.387Z,10.13
2023-05-11T23:13:12.769Z,10.01
2023-05-11T23:15:40.767Z,9.91
2023-05-11T23:18:08.381Z,9.88
2023-05-11T23:20:35.827Z,9.90
2023-05-11T23:23:03.163Z,10.05
2023-05-11T23:25:31.021Z,10.13
2023-05-11T23:27:58.407Z,10.07
2023-05-11T23:30:26.156Z,10.04
2023-05-11T23:32:53.527Z,10.08
2023-05-11T23:35:20.927Z,10.05
2023-05-11T23:37:48.311Z,10.07
2023-05-11T23:40:15.713Z,10.06
2023-05-11T23:42:43.109Z,10.04
2023-05-11T23:45:11.036Z,10.12
2023-05-11T23:47:38.720Z,10.21
2023-05-11T23:50:07.347Z,10.12
2023-05-11T23:52:34.711Z,9.99
2023-05-11T23:55:02.129Z,10.02
2023-05-11T23:57:29.562Z,10.03
2023-05-11T23:59:56.966Z,10.04
